KPRX/PRX METAR and TAF weather

Enter ICAO airport designator
Station Type Date Time Source
KPRX METAR 2019/05/25 14:56 UTC NOAA

KPRX 251456Z AUTO 21009KT 10SM BKN018 OVC025 25/22 A3010 RMK AO2 SLP198 T02500217 53008


Station Type Date Time Source
KPRX Decoded METAR 2019/05/25 14:56 UTC NOAA

Paris / Cox Field, TX, United States (KPRX) 33-38N 095-27W
May 25, 2019 - 10:56 AM EDT / 2019.05.25 1456 UTC
Wind: from the SSW (210 degrees) at 10 MPH (9 KT):0
Visibility: 10 mile(s):0
Sky conditions: overcast
Temperature: 77.0 F (25.0 C)
Dew Point: 71.1 F (21.7 C)
Relative Humidity: 81%
Pressure (altimeter): 30.1 in. Hg (1019 hPa)
Pressure tendency: 0.02 inches (0.8 hPa) higher than three hours ago
ob: KPRX 251456Z AUTO 21009KT 10SM BKN018 OVC025 25/22 A3010 RMK AO2 SLP198 T02500217 53008
cycle: 15

Station Type Date Time Source
KPRX TAF UTC NOAA

Error!

Example: see airport list